Time;durP1;ratioP1;P1;durP2;ratioP2;P2;SDS_P1;SDS_P2;PMS_P1;PMS_P2;Temp;Humidity;BMP_temperature;BMP_pressure;BME280_temperature;BME280_humidity;BME280_pressure;Samples;Min_cycle;Max_cycle;Signal;HPM_P1;HPM_P2
2020/12/20 00:01:21;;;;;;;4.45;4.05;;;10.30;1.00;;;;;;5011010;28;20767;-66
2020/12/20 00:03:48;;;;;;;5.28;4.60;;;10.20;1.00;;;;;;5010433;28;20409;-65
2020/12/20 00:06:14;;;;;;;5.20;4.50;;;10.20;1.00;;;;;;5010681;28;20416;-65
2020/12/20 00:08:41;;;;;;;5.80;5.20;;;10.20;1.00;;;;;;5013111;28;20413;-65
2020/12/20 00:11:07;;;;;;;5.30;4.80;;;10.20;1.00;;;;;;5014428;28;20423;-65
2020/12/20 00:13:33;;;;;;;4.75;4.25;;;10.20;1.00;;;;;;5013912;28;20420;-65
2020/12/20 00:15:59;;;;;;;6.38;4.47;;;10.10;1.00;;;;;;5014050;28;20777;-65
2020/12/20 00:18:25;;;;;;;5.10;4.50;;;10.10;1.00;;;;;;5014137;28;20452;-65
2020/12/20 00:20:51;;;;;;;4.75;4.35;;;10.00;1.00;;;;;;5014017;28;20417;-65
2020/12/20 00:23:17;;;;;;;5.43;4.60;;;10.00;1.00;;;;;;5014182;28;20424;-65
2020/12/20 00:25:44;;;;;;;5.00;4.50;;;9.90;1.00;;;;;;5013529;28;20914;-65
2020/12/20 00:28:10;;;;;;;6.37;4.60;;;9.90;1.00;;;;;;5013941;28;20424;-65
2020/12/20 00:30:36;;;;;;;4.78;4.28;;;10.00;1.00;;;;;;5013594;28;20424;-64
2020/12/20 00:33:02;;;;;;;4.10;3.80;;;10.10;1.00;;;;;;5013628;28;20416;-64
2020/12/20 00:35:29;;;;;;;5.70;4.30;;;10.10;1.00;;;;;;5013676;28;20428;-64
2020/12/20 00:37:55;;;;;;;5.40;4.53;;;10.10;1.00;;;;;;5013713;28;20462;-64
2020/12/20 00:40:21;;;;;;;4.80;4.20;;;10.10;1.00;;;;;;5013650;28;20419;-63
2020/12/20 00:42:48;;;;;;;4.68;4.30;;;10.10;1.00;;;;;;5013501;28;20420;-64
2020/12/20 00:45:14;;;;;;;5.00;4.50;;;10.10;1.00;;;;;;5013254;28;20413;-65
2020/12/20 00:47:40;;;;;;;5.28;4.30;;;10.10;1.00;;;;;;5013660;28;20417;-65
2020/12/20 00:50:06;;;;;;;5.38;4.80;;;10.10;1.00;;;;;;5013573;28;20412;-65
2020/12/20 00:52:32;;;;;;;5.45;4.68;;;10.20;1.00;;;;;;5014011;28;20419;-65
2020/12/20 00:54:58;;;;;;;6.20;5.20;;;10.20;1.00;;;;;;5013258;28;20428;-66
2020/12/20 00:57:24;;;;;;;5.05;4.55;;;10.20;1.00;;;;;;5013493;28;20420;-65
2020/12/20 00:59:51;;;;;;;5.28;4.75;;;10.10;1.00;;;;;;5013022;28;20415;-65
2020/12/20 01:02:17;;;;;;;5.60;4.70;;;10.20;1.00;;;;;;5013666;28;20782;-65
2020/12/20 01:04:44;;;;;;;5.00;4.47;;;10.10;1.00;;;;;;5013349;28;20420;-65
2020/12/20 01:07:10;;;;;;;5.82;4.80;;;10.10;1.00;;;;;;5013092;28;20428;-65
2020/12/20 01:09:36;;;;;;;4.93;4.43;;;10.00;1.00;;;;;;5013089;28;20420;-65
2020/12/20 01:12:03;;;;;;;5.07;4.60;;;10.00;1.00;;;;;;5013001;28;20412;-64
2020/12/20 01:14:29;;;;;;;7.13;4.80;;;10.00;1.00;;;;;;5012768;28;20459;-65
2020/12/20 01:16:56;;;;;;;6.72;4.78;;;10.00;1.00;;;;;;5013095;28;20778;-64
2020/12/20 01:19:22;;;;;;;4.53;4.13;;;10.10;1.00;;;;;;5012532;28;20409;-65
2020/12/20 01:21:49;;;;;;;4.97;4.50;;;10.10;1.00;;;;;;5012907;28;20408;-65
2020/12/20 01:24:15;;;;;;;5.53;4.40;;;10.00;1.00;;;;;;5012482;28;20878;-65
2020/12/20 01:26:41;;;;;;;5.45;4.93;;;10.00;1.00;;;;;;5012779;28;20416;-65
2020/12/20 01:29:07;;;;;;;6.72;4.47;;;10.00;1.00;;;;;;5012487;28;20416;-65
2020/12/20 01:31:33;;;;;;;6.50;4.78;;;9.90;1.00;;;;;;5012811;28;20778;-64
2020/12/20 01:34:00;;;;;;;4.90;4.50;;;9.90;1.00;;;;;;5012825;28;20432;-65
2020/12/20 01:36:27;;;;;;;5.23;4.73;;;10.10;1.00;;;;;;5012429;28;20433;-64
2020/12/20 01:38:53;;;;;;;6.55;4.97;;;10.20;1.00;;;;;;5012546;28;21001;-65
2020/12/20 01:41:20;;;;;;;6.38;5.10;;;10.00;1.00;;;;;;5012429;28;20412;-65
2020/12/20 01:43:47;;;;;;;5.65;4.50;;;10.00;1.00;;;;;;5012255;28;20412;-65
2020/12/20 01:46:15;;;;;;;5.93;5.25;;;10.00;1.00;;;;;;5012823;28;20419;-65
2020/12/20 01:48:41;;;;;;;5.40;4.90;;;10.00;1.00;;;;;;5012498;28;20474;-65
2020/12/20 01:51:09;;;;;;;6.50;5.05;;;10.00;1.00;;;;;;5012504;28;20947;-65
2020/12/20 01:53:36;;;;;;;5.30;4.80;;;10.10;1.00;;;;;;5012503;28;20802;-65
2020/12/20 01:56:03;;;;;;;5.28;4.78;;;10.10;1.00;;;;;;5012196;28;20429;-66
2020/12/20 01:58:31;;;;;;;6.18;4.78;;;10.00;1.00;;;;;;5011973;28;20429;-65
2020/12/20 02:00:57;;;;;;;6.35;5.30;;;10.00;1.00;;;;;;5012059;28;20960;-64
2020/12/20 02:03:25;;;;;;;5.43;4.60;;;10.00;1.00;;;;;;5012149;28;20772;-65
2020/12/20 02:05:51;;;;;;;5.68;4.70;;;10.00;1.00;;;;;;5011890;28;20417;-64
2020/12/20 02:08:19;;;;;;;6.18;4.95;;;10.10;1.00;;;;;;5012105;28;20421;-64
2020/12/20 02:11:02;;;;;;;5.68;4.57;;;10.00;1.00;;;;;;5012105;28;20540;-64
2020/12/20 02:13:28;;;;;;;6.28;5.40;;;9.90;1.00;;;;;;5012320;28;20419;-65
2020/12/20 02:15:54;;;;;;;5.90;5.30;;;9.80;1.00;;;;;;5011482;28;20424;-65
2020/12/20 02:18:20;;;;;;;5.60;5.03;;;9.80;1.00;;;;;;5011830;28;20781;-65
2020/12/20 02:20:47;;;;;;;7.23;4.90;;;9.80;1.00;;;;;;5011945;28;20486;-66
2020/12/20 02:23:14;;;;;;;5.30;4.80;;;9.80;1.00;;;;;;5011491;28;20423;-65
2020/12/20 02:25:40;;;;;;;6.15;4.95;;;9.80;1.00;;;;;;5011745;28;20908;-65
2020/12/20 02:28:06;;;;;;;7.07;5.70;;;9.90;1.00;;;;;;5011813;28;20781;-65
2020/12/20 02:30:33;;;;;;;7.75;5.57;;;10.00;1.00;;;;;;5011275;28;20412;-65
2020/12/20 02:32:59;;;;;;;5.18;4.68;;;10.00;1.00;;;;;;5011498;28;20890;-64
2020/12/20 02:35:25;;;;;;;6.03;5.43;;;10.00;1.00;;;;;;5011283;28;20428;-65
2020/12/20 02:37:51;;;;;;;6.13;5.53;;;10.00;1.00;;;;;;5011512;28;20428;-65
2020/12/20 02:40:18;;;;;;;7.00;5.47;;;10.00;1.00;;;;;;5011481;28;20421;-65
2020/12/20 02:42:44;;;;;;;6.77;5.60;;;10.00;1.00;;;;;;5011640;28;20475;-64
2020/12/20 02:45:11;;;;;;;6.70;5.75;;;10.00;1.00;;;;;;5011183;28;20479;-65
2020/12/20 02:47:37;;;;;;;5.83;5.33;;;10.10;1.00;;;;;;5011379;28;20421;-65
2020/12/20 02:50:03;;;;;;;5.80;5.20;;;10.00;1.00;;;;;;5011278;28;20901;-64
2020/12/20 02:52:29;;;;;;;5.90;5.30;;;10.00;1.00;;;;;;5011074;28;20782;-65
2020/12/20 02:54:55;;;;;;;5.95;5.25;;;10.10;1.00;;;;;;5011185;28;20428;-65
2020/12/20 02:57:22;;;;;;;5.63;5.13;;;10.20;1.00;;;;;;5011312;28;20451;-65
2020/12/20 02:59:48;;;;;;;6.13;5.53;;;10.10;1.00;;;;;;5011164;28;20432;-64
2020/12/20 03:02:14;;;;;;;6.40;5.10;;;10.20;1.00;;;;;;5011349;28;20408;-65
2020/12/20 03:04:40;;;;;;;6.22;5.63;;;10.20;1.00;;;;;;5010879;28;20470;-65
2020/12/20 03:07:06;;;;;;;8.13;5.57;;;10.10;1.00;;;;;;5011057;28;20472;-64
2020/12/20 03:09:32;;;;;;;5.75;5.15;;;10.00;1.00;;;;;;5010909;28;20901;-64
2020/12/20 03:11:59;;;;;;;5.80;5.20;;;9.90;1.00;;;;;;5011132;28;20447;-64
2020/12/20 03:14:25;;;;;;;6.63;5.50;;;9.90;1.00;;;;;;5011032;28;20428;-64
2020/12/20 03:16:52;;;;;;;6.70;5.40;;;10.00;1.00;;;;;;5010898;28;20424;-65
2020/12/20 03:19:18;;;;;;;6.80;5.33;;;9.90;1.00;;;;;;5011194;28;20462;-65
2020/12/20 03:21:44;;;;;;;6.65;5.55;;;9.80;1.00;;;;;;5010737;28;20428;-64
2020/12/20 03:24:10;;;;;;;6.33;5.50;;;9.90;1.00;;;;;;5011149;28;20770;-64
2020/12/20 03:26:36;;;;;;;5.53;5.03;;;9.90;1.00;;;;;;5010800;28;20916;-65
2020/12/20 03:29:02;;;;;;;5.40;4.90;;;10.00;1.00;;;;;;5011076;28;20507;-65
2020/12/20 03:31:29;;;;;;;6.50;5.35;;;10.00;1.00;;;;;;5011264;28;20763;-65
2020/12/20 03:33:55;;;;;;;5.50;5.00;;;9.90;1.00;;;;;;5010620;28;20424;-63
2020/12/20 03:36:21;;;;;;;6.70;5.63;;;9.90;1.00;;;;;;5010807;28;20420;-64
2020/12/20 03:38:47;;;;;;;7.88;5.53;;;9.90;1.00;;;;;;5010916;28;20416;-64
2020/12/20 03:41:13;;;;;;;5.50;4.97;;;9.90;1.00;;;;;;5011073;28;20463;-65
2020/12/20 03:43:39;;;;;;;5.60;5.10;;;9.90;1.00;;;;;;5013336;28;20894;-64
2020/12/20 03:46:05;;;;;;;7.50;5.20;;;9.90;1.00;;;;;;5014395;28;20409;-64
2020/12/20 03:48:32;;;;;;;6.25;5.65;;;9.90;1.00;;;;;;5014749;28;20420;-64
2020/12/20 03:50:59;;;;;;;9.30;5.43;;;9.90;1.00;;;;;;5014644;28;20421;-65
2020/12/20 03:53:25;;;;;;;5.88;5.28;;;9.80;1.00;;;;;;5014932;28;20484;-65
2020/12/20 03:55:51;;;;;;;7.85;6.22;;;9.80;1.00;;;;;;5014410;28;20447;-65
2020/12/20 03:58:17;;;;;;;6.00;5.40;;;9.90;1.00;;;;;;5014569;28;20412;-65
2020/12/20 04:00:43;;;;;;;6.70;5.90;;;9.80;1.00;;;;;;5014608;28;20471;-64
2020/12/20 04:03:09;;;;;;;6.45;5.15;;;9.90;1.00;;;;;;5014093;28;20889;-64
2020/12/20 04:05:36;;;;;;;6.35;5.63;;;9.80;1.00;;;;;;5014299;28;20424;-65
2020/12/20 04:08:02;;;;;;;6.28;5.68;;;9.80;1.00;;;;;;5014311;28;20416;-64
2020/12/20 04:10:28;;;;;;;6.53;5.90;;;9.80;1.00;;;;;;5014390;28;20420;-64
2020/12/20 04:12:54;;;;;;;7.85;5.40;;;9.80;1.00;;;;;;5014183;28;20477;-65
2020/12/20 04:15:20;;;;;;;6.65;5.60;;;9.80;1.00;;;;;;5013577;28;20921;-65
2020/12/20 04:17:46;;;;;;;6.17;5.57;;;9.80;1.00;;;;;;5014051;28;20423;-64
2020/12/20 04:20:13;;;;;;;7.20;6.10;;;9.70;1.00;;;;;;5013912;28;20886;-65
2020/12/20 04:22:39;;;;;;;6.07;5.47;;;9.50;1.00;;;;;;5014235;28;20549;-66
2020/12/20 04:25:06;;;;;;;6.00;5.40;;;9.60;1.00;;;;;;5013645;28;20424;-65
2020/12/20 04:27:32;;;;;;;7.18;6.47;;;9.60;1.00;;;;;;5013863;28;20412;-65
2020/12/20 04:29:58;;;;;;;6.45;5.72;;;9.60;1.00;;;;;;5013831;28;20759;-66
2020/12/20 04:32:24;;;;;;;6.60;6.00;;;9.50;1.00;;;;;;5013700;28;20456;-65
2020/12/20 04:34:51;;;;;;;7.57;5.65;;;9.50;1.00;;;;;;5014034;28;20489;-64
2020/12/20 04:37:17;;;;;;;6.70;6.00;;;9.40;1.00;;;;;;5014210;28;20424;-64
2020/12/20 04:39:44;;;;;;;7.53;6.00;;;9.40;1.00;;;;;;5013767;28;20837;-64
2020/12/20 04:42:10;;;;;;;6.55;5.50;;;9.50;1.00;;;;;;5013743;28;20832;-65
2020/12/20 04:44:36;;;;;;;6.80;6.20;;;9.50;1.00;;;;;;5013344;28;20408;-65
2020/12/20 04:47:03;;;;;;;6.55;5.55;;;9.40;1.00;;;;;;5013445;28;20412;-65
2020/12/20 04:49:30;;;;;;;6.63;5.60;;;9.30;1.00;;;;;;5013518;28;20452;-64
2020/12/20 04:51:58;;;;;;;7.78;6.20;;;9.30;1.00;;;;;;5013735;28;20467;-65
2020/12/20 04:54:25;;;;;;;6.63;6.00;;;9.30;1.00;;;;;;5012539;28;20436;-65
2020/12/20 04:56:52;;;;;;;7.35;5.70;;;9.30;1.00;;;;;;5013253;28;20413;-65
2020/12/20 04:59:18;;;;;;;6.40;5.80;;;9.30;1.00;;;;;;5013504;28;20471;-65
2020/12/20 05:01:45;;;;;;;6.10;5.50;;;9.40;1.00;;;;;;5013231;28;20412;-65
2020/12/20 05:04:11;;;;;;;6.53;5.93;;;9.50;1.00;;;;;;5013320;28;20416;-65
2020/12/20 05:06:37;;;;;;;7.38;6.68;;;9.50;1.00;;;;;;5013462;28;20413;-65
2020/12/20 05:09:04;;;;;;;7.10;6.40;;;9.50;1.00;;;;;;5013161;28;20782;-64
2020/12/20 05:11:35;;;;;;;7.35;6.30;;;9.50;1.00;;;;;;5013365;28;20959;-65
2020/12/20 05:14:03;;;;;;;6.95;6.22;;;9.40;1.00;;;;;;5012612;28;20417;-65
2020/12/20 05:16:31;;;;;;;6.68;6.03;;;9.50;1.00;;;;;;5012981;28;20416;-65
2020/12/20 05:18:57;;;;;;;6.88;5.60;;;9.50;1.00;;;;;;5013180;28;20447;-65
2020/12/20 05:21:25;;;;;;;7.55;6.15;;;9.60;1.00;;;;;;5013263;28;20424;-65
2020/12/20 05:23:51;;;;;;;6.47;5.88;;;9.60;1.00;;;;;;5013137;28;20503;-64
2020/12/20 05:26:24;;;;;;;6.50;5.90;;;9.60;1.00;;;;;;5012702;28;20421;-65
2020/12/20 05:28:50;;;;;;;8.68;7.10;;;9.60;1.00;;;;;;5013109;28;20802;-64
2020/12/20 05:31:17;;;;;;;7.40;6.38;;;9.50;1.00;;;;;;5012760;28;20767;-65
2020/12/20 05:33:43;;;;;;;8.93;6.63;;;9.40;1.00;;;;;;5012937;28;20421;-65
2020/12/20 05:36:09;;;;;;;6.53;5.93;;;9.40;1.00;;;;;;5012798;28;20429;-65
2020/12/20 05:38:37;;;;;;;9.70;5.80;;;9.40;1.00;;;;;;5012817;28;20475;-65
2020/12/20 05:41:04;;;;;;;6.68;5.75;;;9.50;1.00;;;;;;5013922;28;20413;-65
2020/12/20 05:43:30;;;;;;;7.55;6.85;;;9.50;1.00;;;;;;5013001;28;20420;-65
2020/12/20 05:45:58;;;;;;;7.47;6.55;;;9.40;1.00;;;;;;5012909;28;20413;-65
2020/12/20 05:48:26;;;;;;;8.88;6.60;;;9.40;1.00;;;;;;5012578;28;20418;-65
2020/12/20 05:50:55;;;;;;;8.45;6.70;;;9.40;1.00;;;;;;5012457;28;20412;-65
2020/12/20 05:53:24;;;;;;;7.35;6.30;;;9.50;1.00;;;;;;5012378;28;20421;-65
2020/12/20 05:55:50;;;;;;;6.90;6.10;;;9.50;1.00;;;;;;5011405;28;20433;-64
2020/12/20 05:58:16;;;;;;;7.25;6.45;;;9.50;1.00;;;;;;5012512;28;20420;-66
2020/12/20 06:00:44;;;;;;;9.07;6.20;;;9.50;1.00;;;;;;5012282;28;20421;-65
2020/12/20 06:03:10;;;;;;;6.75;6.15;;;9.50;1.00;;;;;;5012279;28;20424;-64
2020/12/20 06:05:39;;;;;;;8.50;6.35;;;9.50;1.00;;;;;;5011962;28;20424;-64
2020/12/20 06:08:08;;;;;;;8.82;7.00;;;9.50;1.00;;;;;;5012024;28;20466;-65
2020/12/20 06:10:40;;;;;;;7.20;6.50;;;9.50;1.00;;;;;;5011883;28;20773;-64
2020/12/20 06:13:12;;;;;;;6.80;5.97;;;9.40;1.00;;;;;;5012243;28;20427;-64
2020/12/20 06:15:40;;;;;;;7.80;6.88;;;9.40;1.00;;;;;;5011800;28;20813;-64
2020/12/20 06:18:11;;;;;;;8.00;6.68;;;9.40;1.00;;;;;;5011917;28;20417;-64
2020/12/20 06:20:50;;;;;;;8.60;7.13;;;9.40;1.00;;;;;;5011933;28;20417;-64
2020/12/20 06:23:18;;;;;;;8.73;6.82;;;9.30;1.00;;;;;;5011923;28;20420;-65
2020/12/20 06:25:46;;;;;;;7.85;6.40;;;9.30;1.00;;;;;;5011711;28;20786;-65
2020/12/20 06:28:16;;;;;;;7.57;6.78;;;9.40;1.00;;;;;;5012008;28;20421;-64
2020/12/20 06:30:42;;;;;;;8.00;6.65;;;9.30;1.00;;;;;;5011579;28;20786;-65
2020/12/20 06:33:15;;;;;;;8.13;6.68;;;9.20;1.00;;;;;;5011876;28;20471;-63
2020/12/20 06:35:42;;;;;;;7.50;6.80;;;9.20;1.00;;;;;;5011493;28;20482;-64
2020/12/20 06:38:13;;;;;;;8.40;7.60;;;9.20;1.00;;;;;;5011705;28;20447;-65
2020/12/20 06:40:43;;;;;;;8.50;7.55;;;9.30;1.00;;;;;;5011613;28;20773;-64
2020/12/20 06:43:10;;;;;;;7.93;6.60;;;9.30;1.00;;;;;;5011573;28;20415;-63
2020/12/20 06:45:44;;;;;;;10.45;7.40;;;9.30;1.00;;;;;;5011371;28;20463;-64
2020/12/20 06:48:13;;;;;;;8.73;7.18;;;9.30;1.00;;;;;;5011211;28;20420;-65
2020/12/20 06:50:44;;;;;;;7.55;6.80;;;9.30;1.00;;;;;;5011605;28;20428;-65
2020/12/20 06:53:12;;;;;;;8.45;7.65;;;9.30;1.00;;;;;;5011337;28;20470;-64
2020/12/20 06:55:38;;;;;;;7.70;6.80;;;9.40;1.00;;;;;;5011276;28;20800;-64
2020/12/20 06:58:17;;;;;;;7.87;6.80;;;9.30;1.00;;;;;;5011249;28;20893;-64
2020/12/20 07:00:46;;;;;;;8.50;7.60;;;9.30;1.00;;;;;;5011239;28;20416;-64
2020/12/20 07:03:38;;;;;;;9.10;8.10;;;9.30;1.00;;;;;;5011422;28;20425;-65
2020/12/20 07:06:16;;;;;;;9.70;7.22;;;9.20;1.00;;;;;;5010806;28;20415;-64
2020/12/20 07:08:54;;;;;;;8.10;7.30;;;9.30;1.00;;;;;;5010968;28;20421;-64
2020/12/20 07:11:21;;;;;;;8.82;7.93;;;9.30;1.00;;;;;;5011266;28;20427;-64
2020/12/20 07:13:49;;;;;;;9.25;8.35;;;9.40;1.00;;;;;;5011179;28;20417;-65
2020/12/20 07:16:18;;;;;;;9.90;8.02;;;9.40;1.00;;;;;;5011087;28;20459;-65
2020/12/20 07:18:47;;;;;;;8.68;7.72;;;9.40;1.00;;;;;;5013896;28;20417;-65
2020/12/20 07:21:33;;;;;;;8.83;7.93;;;9.40;1.00;;;;;;5014864;28;20834;-64
2020/12/20 07:24:05;;;;;;;9.57;8.25;;;9.40;1.00;;;;;;5014899;28;20952;-63
2020/12/20 07:26:32;;;;;;;10.82;8.35;;;9.20;1.00;;;;;;5014902;28;20424;-65
2020/12/20 07:28:59;;;;;;;10.07;8.15;;;9.20;1.00;;;;;;5015038;28;20416;-64
2020/12/20 07:31:25;;;;;;;8.98;8.00;;;9.20;1.00;;;;;;5014965;28;20416;-63
2020/12/20 07:33:51;;;;;;;9.00;8.10;;;9.20;1.00;;;;;;5014888;28;20417;-64
2020/12/20 07:36:19;;;;;;;9.35;8.30;;;9.20;1.00;;;;;;5014763;28;20490;-64
2020/12/20 07:38:47;;;;;;;9.35;8.25;;;9.20;1.00;;;;;;5014998;28;20428;-64
2020/12/20 07:41:14;;;;;;;9.95;8.40;;;9.30;1.00;;;;;;5014842;28;20503;-64
2020/12/20 07:43:40;;;;;;;9.93;8.85;;;9.20;1.00;;;;;;5014830;28;20421;-64
2020/12/20 07:46:08;;;;;;;10.27;8.00;;;9.20;1.00;;;;;;5014691;28;20416;-64
2020/12/20 07:48:34;;;;;;;9.17;8.20;;;9.20;1.00;;;;;;5014802;28;20413;-64
2020/12/20 07:51:08;;;;;;;9.73;8.63;;;9.20;1.00;;;;;;5014891;28;20800;-64
2020/12/20 07:53:34;;;;;;;10.97;8.67;;;9.20;1.00;;;;;;5014353;28;20992;-64
2020/12/20 07:56:01;;;;;;;9.50;8.50;;;9.20;1.00;;;;;;5014481;28;20425;-64
2020/12/20 07:58:32;;;;;;;9.63;8.73;;;9.20;1.00;;;;;;5014922;28;20417;-65
2020/12/20 08:01:07;;;;;;;10.43;9.27;;;9.30;1.00;;;;;;5015833;28;20429;-64
2020/12/20 08:03:33;;;;;;;9.48;8.40;;;9.20;1.00;;;;;;5015111;28;20427;-70
2020/12/20 08:06:04;;;;;;;8.88;7.97;;;9.30;1.00;;;;;;5014213;28;20408;-64
2020/12/20 08:08:31;;;;;;;11.07;9.73;;;9.30;1.00;;;;;;5014612;28;20920;-64
2020/12/20 08:11:01;;;;;;;9.02;8.13;;;9.30;1.00;;;;;;5014380;28;20417;-65
2020/12/20 08:13:28;;;;;;;9.43;8.40;;;9.40;1.00;;;;;;5014400;28;20421;-66
2020/12/20 08:15:54;;;;;;;8.50;7.60;;;9.50;1.00;;;;;;5013640;28;20436;-65
2020/12/20 08:18:20;;;;;;;10.20;7.90;;;9.50;1.00;;;;;;5014326;28;20428;-65
2020/12/20 08:20:46;;;;;;;8.73;7.93;;;9.50;1.00;;;;;;5014465;28;20908;-65
2020/12/20 08:23:13;;;;;;;9.75;7.75;;;9.60;1.00;;;;;;5014057;28;20421;-65
2020/12/20 08:25:39;;;;;;;9.55;7.90;;;9.60;1.00;;;;;;5013722;28;20413;-65
2020/12/20 08:28:05;;;;;;;10.88;7.75;;;9.60;1.00;;;;;;5013685;28;20412;-65
2020/12/20 08:30:32;;;;;;;8.80;7.70;;;9.60;1.00;;;;;;5012742;28;20432;-65
2020/12/20 08:32:58;;;;;;;8.48;7.57;;;9.60;1.00;;;;;;5014064;28;20466;-64
2020/12/20 08:35:24;;;;;;;8.60;7.30;;;9.60;1.00;;;;;;5013554;28;20804;-65
2020/12/20 08:37:53;;;;;;;7.60;6.80;;;9.50;1.00;;;;;;5014068;28;20428;-65
2020/12/20 08:40:20;;;;;;;7.57;6.82;;;9.60;1.00;;;;;;5013535;28;20502;-65
2020/12/20 08:42:47;;;;;;;7.30;6.60;;;9.60;1.00;;;;;;5013929;28;20419;-65
2020/12/20 08:45:15;;;;;;;7.47;6.45;;;9.60;1.00;;;;;;5013653;28;20805;-66
2020/12/20 08:47:43;;;;;;;8.23;6.80;;;9.60;1.00;;;;;;5013918;28;20471;-65
2020/12/20 08:50:12;;;;;;;7.10;6.40;;;9.70;1.00;;;;;;5013041;28;21299;-66
2020/12/20 08:52:38;;;;;;;8.38;6.07;;;9.70;1.00;;;;;;5013473;28;20417;-65
2020/12/20 08:55:06;;;;;;;8.60;6.32;;;9.70;1.00;;;;;;5013044;28;20432;-66
2020/12/20 08:57:33;;;;;;;8.60;6.47;;;9.80;1.00;;;;;;5013324;28;20918;-65
2020/12/20 09:00:10;;;;;;;8.03;5.50;;;9.80;1.00;;;;;;5013485;28;20423;-65
2020/12/20 09:02:36;;;;;;;7.33;5.80;;;9.80;1.00;;;;;;5013652;28;20448;-65
2020/12/20 09:05:05;;;;;;;6.72;6.07;;;9.90;1.00;;;;;;5013183;28;20443;-65
2020/12/20 09:07:33;;;;;;;6.47;5.53;;;10.00;1.00;;;;;;5013096;28;20558;-65
2020/12/20 09:10:08;;;;;;;6.40;5.80;;;10.00;1.00;;;;;;5013181;28;20447;-64
2020/12/20 09:12:34;;;;;;;7.95;6.55;;;10.00;1.00;;;;;;5013202;28;20417;-65
2020/12/20 09:15:11;;;;;;;9.70;6.30;;;9.90;1.00;;;;;;5012664;28;20512;-66
2020/12/20 09:17:39;;;;;;;8.90;6.80;;;10.00;1.00;;;;;;5013015;28;20424;-66
2020/12/20 09:20:08;;;;;;;8.15;6.97;;;10.00;1.00;;;;;;5012950;28;20413;-65
2020/12/20 09:22:42;;;;;;;8.30;6.70;;;9.90;1.00;;;;;;5012868;28;20417;-65
2020/12/20 09:25:08;;;;;;;6.93;6.22;;;9.90;1.00;;;;;;5012868;28;20474;-65
2020/12/20 09:27:34;;;;;;;7.90;6.63;;;10.00;1.00;;;;;;5012696;28;20412;-65
2020/12/20 09:30:02;;;;;;;7.60;6.10;;;10.10;1.00;;;;;;5012823;28;20782;-65
2020/12/20 09:32:36;;;;;;;8.07;6.27;;;10.10;1.00;;;;;;5012499;28;20511;-65
2020/12/20 09:35:05;;;;;;;8.40;5.65;;;10.20;1.00;;;;;;5012652;28;20432;-65
2020/12/20 09:37:36;;;;;;;7.50;6.35;;;10.30;1.00;;;;;;5013129;28;20412;-65
2020/12/20 09:40:04;;;;;;;7.10;5.93;;;10.40;1.00;;;;;;5012556;28;20432;-65
2020/12/20 09:42:37;;;;;;;9.07;6.30;;;10.40;1.00;;;;;;5012769;28;20876;-65
2020/12/20 09:45:03;;;;;;;6.25;5.50;;;10.40;1.00;;;;;;5012078;28;20408;-65
2020/12/20 09:47:29;;;;;;;6.53;5.60;;;10.30;1.00;;;;;;5012655;28;20763;-65
2020/12/20 09:49:55;;;;;;;8.15;5.43;;;10.40;1.00;;;;;;5012403;28;20424;-65
2020/12/20 09:52:22;;;;;;;6.97;5.70;;;10.50;1.00;;;;;;5012417;28;20417;-65
2020/12/20 09:54:48;;;;;;;5.70;5.10;;;10.50;1.00;;;;;;5012173;28;20427;-65
2020/12/20 09:57:14;;;;;;;6.45;4.93;;;10.60;1.00;;;;;;5012356;28;20421;-64
2020/12/20 09:59:40;;;;;;;6.95;4.80;;;10.60;1.00;;;;;;5012084;28;20420;-64
2020/12/20 10:02:07;;;;;;;5.35;4.85;;;10.60;1.00;;;;;;5012235;28;20474;-66
2020/12/20 10:04:38;;;;;;;5.80;5.20;;;10.70;1.00;;;;;;5011989;28;20420;-65
2020/12/20 10:07:04;;;;;;;5.60;5.00;;;10.90;1.00;;;;;;5012294;28;20963;-65
2020/12/20 10:09:31;;;;;;;7.40;4.90;;;11.00;1.00;;;;;;5012127;28;20478;-65
2020/12/20 10:11:57;;;;;;;5.07;3.92;;;11.10;1.00;;;;;;5012476;28;20794;-65
2020/12/20 10:14:23;;;;;;;5.97;4.22;;;11.10;1.00;;;;;;5011846;28;20416;-64
2020/12/20 10:16:52;;;;;;;6.80;4.28;;;11.20;1.00;;;;;;5011995;28;20435;-64
2020/12/20 10:19:18;;;;;;;4.80;4.30;;;11.20;1.00;;;;;;5009110;28;20417;-64
2020/12/20 10:21:48;;;;;;;4.60;4.10;;;11.20;1.00;;;;;;4991667;28;20846;-65
2020/12/20 10:24:14;;;;;;;5.55;4.10;;;11.20;1.00;;;;;;4997644;28;20421;-65
2020/12/20 10:26:44;;;;;;;5.68;4.20;;;11.20;1.00;;;;;;5011203;28;20416;-66
2020/12/20 10:29:13;;;;;;;5.97;4.30;;;11.40;1.00;;;;;;5011943;28;20424;-66
2020/12/20 10:31:40;;;;;;;6.07;4.10;;;11.50;1.00;;;;;;5012156;28;20421;-67
2020/12/20 10:34:06;;;;;;;8.43;4.20;;;11.50;1.00;;;;;;5012476;28;20412;-66
2020/12/20 10:36:32;;;;;;;5.32;4.25;;;11.50;1.00;;;;;;5011554;28;20427;-66
2020/12/20 10:38:58;;;;;;;6.40;4.70;;;11.50;1.00;;;;;;5011406;28;20889;-66
2020/12/20 10:41:24;;;;;;;4.47;3.88;;;11.50;1.00;;;;;;5011490;28;20412;-67
2020/12/20 10:43:51;;;;;;;5.72;4.20;;;11.50;1.00;;;;;;5011506;28;20426;-66
2020/12/20 10:46:18;;;;;;;6.85;4.00;;;11.40;1.00;;;;;;5011421;28;20409;-66
2020/12/20 10:48:44;;;;;;;7.32;3.88;;;11.50;1.00;;;;;;5011520;28;20423;-68
2020/12/20 10:51:10;;;;;;;4.97;3.92;;;11.50;1.00;;;;;;5011685;28;20479;-66
2020/12/20 10:53:37;;;;;;;5.50;3.60;;;11.40;1.00;;;;;;5004292;28;20423;-67
2020/12/20 10:56:04;;;;;;;5.50;3.67;;;11.50;1.00;;;;;;4990779;28;20437;-66
2020/12/20 10:58:30;;;;;;;5.97;4.40;;;11.40;1.00;;;;;;4991761;28;20911;-66
2020/12/20 11:00:57;;;;;;;4.93;3.88;;;11.50;1.00;;;;;;4991926;28;20485;-66
2020/12/20 11:03:23;;;;;;;5.57;3.70;;;11.50;1.00;;;;;;4991713;28;20419;-67
2020/12/20 11:05:49;;;;;;;8.90;3.97;;;11.50;1.00;;;;;;4991245;28;20410;-67
2020/12/20 11:08:16;;;;;;;4.70;3.70;;;11.40;1.00;;;;;;4991424;28;20421;-65
2020/12/20 11:10:42;;;;;;;8.30;3.90;;;11.40;1.00;;;;;;4992280;28;20426;-65
2020/12/20 11:13:08;;;;;;;8.57;4.00;;;11.50;1.00;;;;;;4991810;28;20418;-65
2020/12/20 11:15:34;;;;;;;5.20;3.60;;;11.50;1.00;;;;;;4990826;28;20988;-65
2020/12/20 11:18:01;;;;;;;5.65;3.65;;;11.50;1.00;;;;;;4991737;28;20418;-65
2020/12/20 11:20:27;;;;;;;3.70;3.30;;;11.60;1.00;;;;;;4991354;28;20425;-64
2020/12/20 11:22:54;;;;;;;5.60;3.42;;;11.60;1.00;;;;;;4992496;28;20422;-64
2020/12/20 11:25:20;;;;;;;4.97;3.15;;;11.60;1.00;;;;;;4991531;28;20422;-65
2020/12/20 11:27:46;;;;;;;7.40;3.65;;;11.50;1.00;;;;;;4991876;28;20422;-65
2020/12/20 11:30:12;;;;;;;5.50;3.10;;;11.60;1.00;;;;;;4991924;28;20799;-65
2020/12/20 11:32:39;;;;;;;8.07;4.00;;;11.60;1.00;;;;;;4991908;28;20430;-64
2020/12/20 11:35:05;;;;;;;5.47;3.30;;;11.60;1.00;;;;;;4991662;28;20430;-64
2020/12/20 11:37:32;;;;;;;4.88;3.30;;;11.60;1.00;;;;;;4997079;28;20897;-65
2020/12/20 11:39:58;;;;;;;8.40;3.90;;;11.50;1.00;;;;;;5011321;28;20423;-65
2020/12/20 11:42:24;;;;;;;6.22;3.63;;;11.50;1.00;;;;;;5011307;28;20775;-64
2020/12/20 11:44:50;;;;;;;6.68;3.72;;;11.50;1.00;;;;;;5010506;28;20416;-64
2020/12/20 11:47:16;;;;;;;6.60;3.78;;;11.50;1.00;;;;;;5011164;28;20424;-64
2020/12/20 11:49:42;;;;;;;5.38;3.97;;;11.60;1.00;;;;;;5010594;28;20778;-64
2020/12/20 11:52:09;;;;;;;7.18;3.90;;;11.60;1.00;;;;;;5010621;28;20416;-64
2020/12/20 11:54:35;;;;;;;7.65;4.00;;;11.60;1.00;;;;;;5010649;28;20431;-62
2020/12/20 11:57:01;;;;;;;5.40;3.50;;;11.60;1.00;;;;;;5010368;28;20452;-64
2020/12/20 11:59:27;;;;;;;8.00;3.55;;;11.60;1.00;;;;;;5011017;28;20420;-65
2020/12/20 12:01:58;;;;;;;6.25;3.50;;;11.70;1.00;;;;;;5010499;28;20421;-65
2020/12/20 12:04:24;;;;;;;7.97;3.80;;;11.60;1.00;;;;;;5012488;28;20416;-64
2020/12/20 12:06:50;;;;;;;6.13;3.60;;;11.70;1.00;;;;;;5014463;28;20416;-65
2020/12/20 12:09:17;;;;;;;4.80;3.80;;;11.70;1.00;;;;;;5014492;28;20416;-69
2020/12/20 12:11:43;;;;;;;3.90;3.50;;;11.70;1.00;;;;;;5015185;28;20464;-65
2020/12/20 12:14:09;;;;;;;4.75;3.58;;;11.60;1.00;;;;;;5013541;28;20420;-65
2020/12/20 12:16:35;;;;;;;4.40;3.60;;;11.60;1.00;;;;;;5014223;28;20428;-65
2020/12/20 12:19:02;;;;;;;7.43;3.28;;;11.70;1.00;;;;;;5014418;28;20420;-64
2020/12/20 12:21:28;;;;;;;4.68;3.63;;;11.60;1.00;;;;;;5014168;28;20448;-65
2020/12/20 12:23:54;;;;;;;6.43;4.03;;;11.50;1.00;;;;;;5014202;28;20420;-65
2020/12/20 12:26:21;;;;;;;6.90;3.60;;;11.60;1.00;;;;;;5013679;28;20832;-65
2020/12/20 12:28:47;;;;;;;6.88;3.50;;;11.60;1.00;;;;;;5014215;28;20417;-66
2020/12/20 12:31:13;;;;;;;6.13;3.25;;;11.60;1.00;;;;;;5014197;28;20412;-64
2020/12/20 12:33:39;;;;;;;6.85;3.50;;;11.50;1.00;;;;;;5013831;28;20448;-64
2020/12/20 12:36:06;;;;;;;8.15;3.40;;;11.50;1.00;;;;;;5013773;28;20487;-64
2020/12/20 12:38:32;;;;;;;5.97;3.42;;;11.50;1.00;;;;;;5013451;28;20416;-64
2020/12/20 12:40:59;;;;;;;7.95;3.58;;;11.50;1.00;;;;;;5014069;28;20416;-64
2020/12/20 12:43:26;;;;;;;6.03;3.28;;;11.40;1.00;;;;;;5013620;28;20474;-64
2020/12/20 12:45:52;;;;;;;4.85;3.30;;;11.40;1.00;;;;;;5013082;28;20789;-64
2020/12/20 12:48:18;;;;;;;5.00;3.27;;;11.30;1.00;;;;;;5013556;28;20467;-64
2020/12/20 12:50:44;;;;;;;7.60;4.50;;;11.40;1.00;;;;;;5013451;28;20420;-64
2020/12/20 12:53:10;;;;;;;6.18;3.15;;;11.50;1.00;;;;;;5013625;28;20416;-64
2020/12/20 12:55:36;;;;;;;5.60;3.40;;;11.50;1.00;;;;;;5013190;28;20428;-64
2020/12/20 12:58:02;;;;;;;5.80;3.25;;;11.50;1.00;;;;;;5013240;28;20417;-64
2020/12/20 13:00:29;;;;;;;5.88;3.20;;;11.50;1.00;;;;;;5013624;28;20463;-64
2020/12/20 13:02:56;;;;;;;7.72;3.70;;;11.40;1.00;;;;;;5013366;28;20428;-64